Terminal Aerodrome Forecast
Issued by NWS Jackson, MS

Home | Current Version | Previous Version | Text Only | Print | Product List | Glossary On
Versions: 1 2 3 4 5 6 7 8 9 10 11 12 13 14 15
000
FTUS44 KJAN 231700
TAFGLH
TAF
KGLH 231723Z 2318/2418 30005KT P6SM SCT035
     FM240200 00000KT 6SM BR SCT250
     FM240900 00000KT 4SM BR SKC
     FM241300 36007KT P6SM SKC=

USA.gov is the U.S. government's official web portal to all federal, state and local government web resources and services.